sensor_id;sensor_type;location;lat;lon;timestamp;pressure;altitude;pressure_sealevel;temperature;humidity
46464;BME280;32161;48.148;-1.554;2023-03-04T00:02:11;102062.47;;;3.92;84.21
46464;BME280;32161;48.148;-1.554;2023-03-04T00:04:39;102072.28;;;3.84;84.52
46464;BME280;32161;48.148;-1.554;2023-03-04T00:07:06;102069.75;;;3.82;85.73
46464;BME280;32161;48.148;-1.554;2023-03-04T00:09:34;102071.91;;;3.79;86.02
46464;BME280;32161;48.148;-1.554;2023-03-04T00:12:02;102072.19;;;3.76;85.15
46464;BME280;32161;48.148;-1.554;2023-03-04T00:14:33;102071.38;;;3.75;84.59
46464;BME280;32161;48.148;-1.554;2023-03-04T00:17:00;102080.44;;;3.74;85.06
46464;BME280;32161;48.148;-1.554;2023-03-04T00:19:30;102073.66;;;3.70;86.00
46464;BME280;32161;48.148;-1.554;2023-03-04T00:22:00;102068.59;;;3.67;86.56
46464;BME280;32161;48.148;-1.554;2023-03-04T00:24:27;102072.28;;;3.66;86.65
46464;BME280;32161;48.148;-1.554;2023-03-04T00:26:55;102069.06;;;3.62;87.38
46464;BME280;32161;48.148;-1.554;2023-03-04T00:29:23;102069.53;;;3.58;86.69
46464;BME280;32161;48.148;-1.554;2023-03-04T00:31:50;102063.72;;;3.53;87.36
46464;BME280;32161;48.148;-1.554;2023-03-04T00:34:18;102066.84;;;3.58;87.55
46464;BME280;32161;48.148;-1.554;2023-03-04T00:36:47;102068.50;;;3.59;87.69
46464;BME280;32161;48.148;-1.554;2023-03-04T00:39:15;102065.56;;;3.52;87.52
46464;BME280;32161;48.148;-1.554;2023-03-04T00:41:43;102076.63;;;3.49;87.14
46464;BME280;32161;48.148;-1.554;2023-03-04T00:44:10;102077.94;;;3.45;85.82
46464;BME280;32161;48.148;-1.554;2023-03-04T00:46:38;102083.47;;;3.43;85.56
46464;BME280;32161;48.148;-1.554;2023-03-04T00:49:05;102077.09;;;3.45;84.35
46464;BME280;32161;48.148;-1.554;2023-03-04T00:51:33;102084.47;;;3.42;84.75
46464;BME280;32161;48.148;-1.554;2023-03-04T00:54:02;102077.53;;;3.40;84.29
46464;BME280;32161;48.148;-1.554;2023-03-04T00:56:30;102073.16;;;3.39;84.51
46464;BME280;32161;48.148;-1.554;2023-03-04T00:58:58;102082.91;;;3.40;84.41
46464;BME280;32161;48.148;-1.554;2023-03-04T01:01:25;102083.09;;;3.38;84.41
46464;BME280;32161;48.148;-1.554;2023-03-04T01:03:53;102091.81;;;3.40;84.49
46464;BME280;32161;48.148;-1.554;2023-03-04T01:06:20;102091.56;;;3.34;84.92
46464;BME280;32161;48.148;-1.554;2023-03-04T01:08:48;102088.66;;;3.27;84.59
46464;BME280;32161;48.148;-1.554;2023-03-04T01:11:17;102081.88;;;3.23;86.22
46464;BME280;32161;48.148;-1.554;2023-03-04T01:13:44;102083.88;;;3.21;86.50
46464;BME280;32161;48.148;-1.554;2023-03-04T01:16:12;102086.84;;;3.18;87.62
46464;BME280;32161;48.148;-1.554;2023-03-04T01:18:40;102077.69;;;3.11;87.70
46464;BME280;32161;48.148;-1.554;2023-03-04T01:21:07;102089.97;;;3.13;88.30
46464;BME280;32161;48.148;-1.554;2023-03-04T01:23:35;102078.84;;;3.08;88.23
46464;BME280;32161;48.148;-1.554;2023-03-04T01:26:03;102076.59;;;3.04;87.91
46464;BME280;32161;48.148;-1.554;2023-03-04T01:28:32;102078.59;;;3.02;89.16
46464;BME280;32161;48.148;-1.554;2023-03-04T01:31:01;102076.72;;;3.02;89.24
46464;BME280;32161;48.148;-1.554;2023-03-04T01:33:28;102077.75;;;3.01;88.15
46464;BME280;32161;48.148;-1.554;2023-03-04T01:35:56;102081.25;;;3.02;88.05
46464;BME280;32161;48.148;-1.554;2023-03-04T01:38:24;102083.13;;;3.01;87.89
46464;BME280;32161;48.148;-1.554;2023-03-04T01:40:52;102075.72;;;3.03;88.08
46464;BME280;32161;48.148;-1.554;2023-03-04T01:43:23;102070.38;;;3.03;87.11
46464;BME280;32161;48.148;-1.554;2023-03-04T01:45:54;102079.59;;;3.01;87.77
46464;BME280;32161;48.148;-1.554;2023-03-04T01:48:26;102073.22;;;3.02;88.39
46464;BME280;32161;48.148;-1.554;2023-03-04T01:50:55;102073.38;;;3.00;88.69
46464;BME280;32161;48.148;-1.554;2023-03-04T01:53:26;102066.16;;;3.01;88.96
46464;BME280;32161;48.148;-1.554;2023-03-04T01:55:56;102076.19;;;2.99;88.50
46464;BME280;32161;48.148;-1.554;2023-03-04T01:58:28;102065.59;;;2.97;88.43
46464;BME280;32161;48.148;-1.554;2023-03-04T02:00:57;102068.13;;;2.99;88.37
46464;BME280;32161;48.148;-1.554;2023-03-04T02:03:25;102068.00;;;3.00;87.71
46464;BME280;32161;48.148;-1.554;2023-03-04T02:05:54;102073.75;;;3.05;88.08
46464;BME280;32161;48.148;-1.554;2023-03-04T02:08:23;102062.72;;;3.08;87.99
46464;BME280;32161;48.148;-1.554;2023-03-04T02:10:51;102060.88;;;3.09;87.82
46464;BME280;32161;48.148;-1.554;2023-03-04T02:13:20;102070.78;;;3.08;88.59
46464;BME280;32161;48.148;-1.554;2023-03-04T02:15:48;102065.69;;;3.05;88.03
46464;BME280;32161;48.148;-1.554;2023-03-04T02:18:19;102062.84;;;3.07;88.66
46464;BME280;32161;48.148;-1.554;2023-03-04T02:20:52;102061.00;;;3.07;87.83
46464;BME280;32161;48.148;-1.554;2023-03-04T02:23:29;102063.00;;;3.05;86.95
46464;BME280;32161;48.148;-1.554;2023-03-04T02:26:18;102057.34;;;3.08;87.33
46464;BME280;32161;48.148;-1.554;2023-03-04T02:28:49;102058.19;;;3.09;85.45
46464;BME280;32161;48.148;-1.554;2023-03-04T02:31:24;102052.81;;;3.09;85.33
46464;BME280;32161;48.148;-1.554;2023-03-04T02:33:54;102054.50;;;3.10;85.10
46464;BME280;32161;48.148;-1.554;2023-03-04T02:36:23;102051.97;;;3.08;85.53
46464;BME280;32161;48.148;-1.554;2023-03-04T02:38:53;102054.38;;;3.11;85.26
46464;BME280;32161;48.148;-1.554;2023-03-04T02:41:25;102055.22;;;3.12;84.98
46464;BME280;32161;48.148;-1.554;2023-03-04T02:43:55;102052.94;;;3.07;84.93
46464;BME280;32161;48.148;-1.554;2023-03-04T02:46:23;102052.44;;;3.04;85.73
46464;BME280;32161;48.148;-1.554;2023-03-04T02:48:51;102053.84;;;2.98;85.17
46464;BME280;32161;48.148;-1.554;2023-03-04T02:51:19;102056.84;;;2.95;85.91
46464;BME280;32161;48.148;-1.554;2023-03-04T02:53:46;102058.28;;;2.89;85.21
46464;BME280;32161;48.148;-1.554;2023-03-04T02:56:14;102060.81;;;2.91;84.38
46464;BME280;32161;48.148;-1.554;2023-03-04T02:58:43;102061.41;;;2.85;84.00
46464;BME280;32161;48.148;-1.554;2023-03-04T03:01:10;102051.81;;;2.82;84.04
46464;BME280;32161;48.148;-1.554;2023-03-04T03:03:38;102060.31;;;2.78;84.38
46464;BME280;32161;48.148;-1.554;2023-03-04T03:06:06;102055.63;;;2.80;83.73
46464;BME280;32161;48.148;-1.554;2023-03-04T03:08:34;102056.91;;;2.76;82.74
46464;BME280;32161;48.148;-1.554;2023-03-04T03:11:01;102049.56;;;2.78;82.54
46464;BME280;32161;48.148;-1.554;2023-03-04T03:13:29;102048.16;;;2.74;83.12
46464;BME280;32161;48.148;-1.554;2023-03-04T03:15:58;102050.97;;;2.72;81.67
46464;BME280;32161;48.148;-1.554;2023-03-04T03:18:25;102050.44;;;2.68;81.22
46464;BME280;32161;48.148;-1.554;2023-03-04T03:20:53;102054.13;;;2.67;81.64
46464;BME280;32161;48.148;-1.554;2023-03-04T03:23:20;102046.22;;;2.66;81.99
46464;BME280;32161;48.148;-1.554;2023-03-04T03:25:49;102053.72;;;2.62;83.38
46464;BME280;32161;48.148;-1.554;2023-03-04T03:28:16;102052.44;;;2.57;84.37
46464;BME280;32161;48.148;-1.554;2023-03-04T03:30:44;102044.41;;;2.57;83.92
46464;BME280;32161;48.148;-1.554;2023-03-04T03:33:13;102051.88;;;2.53;85.86
46464;BME280;32161;48.148;-1.554;2023-03-04T03:35:40;102040.06;;;2.46;84.83
46464;BME280;32161;48.148;-1.554;2023-03-04T03:38:08;102041.31;;;2.42;84.41
46464;BME280;32161;48.148;-1.554;2023-03-04T03:40:35;102042.31;;;2.41;85.37
46464;BME280;32161;48.148;-1.554;2023-03-04T03:43:03;102041.75;;;2.37;85.19
46464;BME280;32161;48.148;-1.554;2023-03-04T03:45:31;102037.84;;;2.32;84.68
46464;BME280;32161;48.148;-1.554;2023-03-04T03:47:58;102038.97;;;2.29;84.87
46464;BME280;32161;48.148;-1.554;2023-03-04T03:50:27;102043.63;;;2.27;83.88
46464;BME280;32161;48.148;-1.554;2023-03-04T03:52:55;102038.00;;;2.20;84.52
46464;BME280;32161;48.148;-1.554;2023-03-04T03:55:23;102040.69;;;2.20;84.09
46464;BME280;32161;48.148;-1.554;2023-03-04T03:57:50;102038.28;;;2.17;83.55
46464;BME280;32161;48.148;-1.554;2023-03-04T04:00:19;102030.94;;;2.19;82.65
46464;BME280;32161;48.148;-1.554;2023-03-04T04:02:47;102047.31;;;2.16;82.03
46464;BME280;32161;48.148;-1.554;2023-03-04T04:05:14;102040.56;;;2.12;83.39
46464;BME280;32161;48.148;-1.554;2023-03-04T04:07:43;102042.38;;;2.12;84.17
46464;BME280;32161;48.148;-1.554;2023-03-04T04:10:11;102037.88;;;2.12;84.49
46464;BME280;32161;48.148;-1.554;2023-03-04T04:12:39;102032.50;;;2.12;84.52
46464;BME280;32161;48.148;-1.554;2023-03-04T04:15:09;102032.50;;;2.12;82.97
46464;BME280;32161;48.148;-1.554;2023-03-04T04:17:38;102035.47;;;2.09;82.81
46464;BME280;32161;48.148;-1.554;2023-03-04T04:20:07;102033.34;;;2.03;82.11
46464;BME280;32161;48.148;-1.554;2023-03-04T04:22:35;102038.03;;;2.01;83.25
46464;BME280;32161;48.148;-1.554;2023-03-04T04:25:05;102033.09;;;1.97;82.75
46464;BME280;32161;48.148;-1.554;2023-03-04T04:27:35;102038.28;;;1.98;83.36
46464;BME280;32161;48.148;-1.554;2023-03-04T04:30:04;102040.97;;;1.98;82.85
46464;BME280;32161;48.148;-1.554;2023-03-04T04:32:32;102042.09;;;1.95;82.05
46464;BME280;32161;48.148;-1.554;2023-03-04T04:34:59;102047.34;;;1.97;82.49
46464;BME280;32161;48.148;-1.554;2023-03-04T04:37:27;102043.94;;;1.95;83.02
46464;BME280;32161;48.148;-1.554;2023-03-04T04:39:54;102038.00;;;1.91;83.08
46464;BME280;32161;48.148;-1.554;2023-03-04T04:42:24;102047.31;;;1.87;84.02
46464;BME280;32161;48.148;-1.554;2023-03-04T04:44:51;102052.56;;;1.89;84.66
46464;BME280;32161;48.148;-1.554;2023-03-04T04:47:19;102051.16;;;1.85;82.83
46464;BME280;32161;48.148;-1.554;2023-03-04T04:49:46;102046.63;;;1.85;83.09
46464;BME280;32161;48.148;-1.554;2023-03-04T04:52:14;102054.81;;;1.84;82.63
46464;BME280;32161;48.148;-1.554;2023-03-04T04:54:41;102054.22;;;1.80;83.10
46464;BME280;32161;48.148;-1.554;2023-03-04T04:57:09;102050.44;;;1.83;82.42
46464;BME280;32161;48.148;-1.554;2023-03-04T04:59:38;102056.06;;;1.80;83.08
46464;BME280;32161;48.148;-1.554;2023-03-04T05:02:06;102059.34;;;1.74;83.14
46464;BME280;32161;48.148;-1.554;2023-03-04T05:04:33;102062.97;;;1.73;83.74
46464;BME280;32161;48.148;-1.554;2023-03-04T05:07:01;102067.66;;;1.70;83.60
46464;BME280;32161;48.148;-1.554;2023-03-04T05:09:29;102065.97;;;1.69;83.48
46464;BME280;32161;48.148;-1.554;2023-03-04T05:11:56;102075.97;;;1.67;83.58
46464;BME280;32161;48.148;-1.554;2023-03-04T05:14:24;102077.66;;;1.68;83.03
46464;BME280;32161;48.148;-1.554;2023-03-04T05:16:53;102072.59;;;1.65;82.89
46464;BME280;32161;48.148;-1.554;2023-03-04T05:19:20;102084.00;;;1.67;82.94
46464;BME280;32161;48.148;-1.554;2023-03-04T05:21:48;102077.94;;;1.65;82.74
46464;BME280;32161;48.148;-1.554;2023-03-04T05:24:16;102086.09;;;1.64;82.96
46464;BME280;32161;48.148;-1.554;2023-03-04T05:26:43;102087.09;;;1.63;83.23
46464;BME280;32161;48.148;-1.554;2023-03-04T05:29:11;102081.59;;;1.64;82.86
46464;BME280;32161;48.148;-1.554;2023-03-04T05:31:38;102081.31;;;1.67;83.96
46464;BME280;32161;48.148;-1.554;2023-03-04T05:34:07;102082.59;;;1.63;85.37
46464;BME280;32161;48.148;-1.554;2023-03-04T05:36:35;102077.50;;;1.60;84.31
46464;BME280;32161;48.148;-1.554;2023-03-04T05:39:03;102077.22;;;1.63;83.82
46464;BME280;32161;48.148;-1.554;2023-03-04T05:41:30;102074.81;;;1.60;84.54
46464;BME280;32161;48.148;-1.554;2023-03-04T05:43:58;102084.00;;;1.58;84.08
46464;BME280;32161;48.148;-1.554;2023-03-04T05:46:25;102083.44;;;1.54;83.85
46464;BME280;32161;48.148;-1.554;2023-03-04T05:48:54;102088.22;;;1.51;83.88
46464;BME280;32161;48.148;-1.554;2023-03-04T05:51:23;102090.31;;;1.47;83.44
46464;BME280;32161;48.148;-1.554;2023-03-04T05:53:50;102087.19;;;1.42;84.30
46464;BME280;32161;48.148;-1.554;2023-03-04T05:56:19;102092.84;;;1.39;84.65
46464;BME280;32161;48.148;-1.554;2023-03-04T05:58:47;102100.00;;;1.38;83.95
46464;BME280;32161;48.148;-1.554;2023-03-04T06:01:15;102099.03;;;1.39;84.62
46464;BME280;32161;48.148;-1.554;2023-03-04T06:03:43;102099.31;;;1.36;83.33
46464;BME280;32161;48.148;-1.554;2023-03-04T06:06:13;102095.78;;;1.36;83.71
46464;BME280;32161;48.148;-1.554;2023-03-04T06:08:42;102099.16;;;1.38;83.40
46464;BME280;32161;48.148;-1.554;2023-03-04T06:11:10;102102.69;;;1.38;83.75
46464;BME280;32161;48.148;-1.554;2023-03-04T06:13:37;102106.34;;;1.37;83.72
46464;BME280;32161;48.148;-1.554;2023-03-04T06:16:06;102103.56;;;1.39;83.63
46464;BME280;32161;48.148;-1.554;2023-03-04T06:18:34;102112.28;;;1.41;83.49
46464;BME280;32161;48.148;-1.554;2023-03-04T06:21:02;102121.31;;;1.40;83.71
46464;BME280;32161;48.148;-1.554;2023-03-04T06:23:30;102125.00;;;1.39;82.41
46464;BME280;32161;48.148;-1.554;2023-03-04T06:26:00;102133.03;;;1.39;83.01
46464;BME280;32161;48.148;-1.554;2023-03-04T06:28:27;102133.56;;;1.33;83.94
46464;BME280;32161;48.148;-1.554;2023-03-04T06:30:56;102132.88;;;1.31;83.26
46464;BME280;32161;48.148;-1.554;2023-03-04T06:33:24;102139.91;;;1.32;83.40
46464;BME280;32161;48.148;-1.554;2023-03-04T06:35:54;102141.91;;;1.39;84.52
46464;BME280;32161;48.148;-1.554;2023-03-04T06:38:22;102137.06;;;1.33;85.37
46464;BME280;32161;48.148;-1.554;2023-03-04T06:40:50;102143.28;;;1.34;84.94
46464;BME280;32161;48.148;-1.554;2023-03-04T06:43:20;102134.97;;;1.37;86.25
46464;BME280;32161;48.148;-1.554;2023-03-04T06:45:48;102142.47;;;1.43;87.24
46464;BME280;32161;48.148;-1.554;2023-03-04T06:48:16;102143.31;;;1.43;86.85
46464;BME280;32161;48.148;-1.554;2023-03-04T06:50:43;102141.91;;;1.49;86.45
46464;BME280;32161;48.148;-1.554;2023-03-04T06:53:11;102143.06;;;1.46;86.50
46464;BME280;32161;48.148;-1.554;2023-03-04T06:55:38;102143.19;;;1.45;87.32
46464;BME280;32161;48.148;-1.554;2023-03-04T06:58:06;102149.28;;;1.57;87.82
46464;BME280;32161;48.148;-1.554;2023-03-04T07:00:36;102150.41;;;1.54;87.31
46464;BME280;32161;48.148;-1.554;2023-03-04T07:03:03;102153.38;;;1.51;84.98
46464;BME280;32161;48.148;-1.554;2023-03-04T07:05:31;102156.16;;;1.50;83.99
46464;BME280;32161;48.148;-1.554;2023-03-04T07:07:58;102162.50;;;1.49;83.95
46464;BME280;32161;48.148;-1.554;2023-03-04T07:10:26;102169.72;;;1.48;83.29
46464;BME280;32161;48.148;-1.554;2023-03-04T07:12:53;102168.72;;;1.49;83.76
46464;BME280;32161;48.148;-1.554;2023-03-04T07:15:21;102164.19;;;1.50;83.27
46464;BME280;32161;48.148;-1.554;2023-03-04T07:17:50;102167.75;;;1.50;82.90
46464;BME280;32161;48.148;-1.554;2023-03-04T07:20:20;102174.81;;;1.51;83.58
46464;BME280;32161;48.148;-1.554;2023-03-04T07:22:48;102170.56;;;1.49;84.58
46464;BME280;32161;48.148;-1.554;2023-03-04T07:25:15;102177.59;;;1.50;84.24
46464;BME280;32161;48.148;-1.554;2023-03-04T07:27:44;102176.75;;;1.49;84.19
46464;BME280;32161;48.148;-1.554;2023-03-04T07:30:12;102178.31;;;1.52;84.62
46464;BME280;32161;48.148;-1.554;2023-03-04T07:32:40;102179.03;;;1.54;84.47
46464;BME280;32161;48.148;-1.554;2023-03-04T07:35:09;102167.34;;;1.55;84.64
46464;BME280;32161;48.148;-1.554;2023-03-04T07:37:37;102178.63;;;1.58;85.59
46464;BME280;32161;48.148;-1.554;2023-03-04T07:40:07;102183.69;;;1.61;86.19
46464;BME280;32161;48.148;-1.554;2023-03-04T07:42:35;102181.16;;;1.60;86.71
46464;BME280;32161;48.148;-1.554;2023-03-04T07:45:04;102179.22;;;1.62;87.12
46464;BME280;32161;48.148;-1.554;2023-03-04T07:47:33;102176.00;;;1.78;87.41
46464;BME280;32161;48.148;-1.554;2023-03-04T07:50:00;102180.09;;;1.82;88.63
46464;BME280;32161;48.148;-1.554;2023-03-04T07:52:29;102180.53;;;1.87;88.71
46464;BME280;32161;48.148;-1.554;2023-03-04T07:54:57;102171.53;;;1.98;88.60
46464;BME280;32161;48.148;-1.554;2023-03-04T07:57:24;102174.91;;;2.00;89.25
46464;BME280;32161;48.148;-1.554;2023-03-04T07:59:52;102175.91;;;2.08;88.64
46464;BME280;32161;48.148;-1.554;2023-03-04T08:02:20;102182.81;;;2.11;88.42
46464;BME280;32161;48.148;-1.554;2023-03-04T08:04:47;102195.13;;;2.13;87.29
46464;BME280;32161;48.148;-1.554;2023-03-04T08:07:15;102187.50;;;2.18;88.10
46464;BME280;32161;48.148;-1.554;2023-03-04T08:09:44;102195.53;;;2.18;88.60
46464;BME280;32161;48.148;-1.554;2023-03-04T08:12:12;102199.94;;;2.19;87.79
46464;BME280;32161;48.148;-1.554;2023-03-04T08:14:40;102202.19;;;2.24;88.69
46464;BME280;32161;48.148;-1.554;2023-03-04T08:17:07;102206.03;;;2.31;87.97
46464;BME280;32161;48.148;-1.554;2023-03-04T08:19:35;102206.16;;;2.39;88.43
46464;BME280;32161;48.148;-1.554;2023-03-04T08:22:03;102203.91;;;2.54;88.65
46464;BME280;32161;48.148;-1.554;2023-03-04T08:24:30;102203.19;;;2.62;89.74
46464;BME280;32161;48.148;-1.554;2023-03-04T08:26:59;102214.34;;;2.67;89.13
46464;BME280;32161;48.148;-1.554;2023-03-04T08:29:27;102206.28;;;2.67;89.68
46464;BME280;32161;48.148;-1.554;2023-03-04T08:31:55;102202.75;;;2.66;89.23
46464;BME280;32161;48.148;-1.554;2023-03-04T08:34:25;102206.38;;;2.94;88.56
46464;BME280;32161;48.148;-1.554;2023-03-04T08:36:53;102200.19;;;2.94;88.83
46464;BME280;32161;48.148;-1.554;2023-03-04T08:39:21;102202.75;;;2.86;89.28
46464;BME280;32161;48.148;-1.554;2023-03-04T08:41:49;102212.44;;;3.06;89.06
46464;BME280;32161;48.148;-1.554;2023-03-04T08:44:17;102210.25;;;3.39;87.64
46464;BME280;32161;48.148;-1.554;2023-03-04T08:46:45;102210.47;;;3.46;86.71
46464;BME280;32161;48.148;-1.554;2023-03-04T08:49:13;102203.47;;;3.35;86.75
46464;BME280;32161;48.148;-1.554;2023-03-04T08:51:40;102208.69;;;3.36;86.29
46464;BME280;32161;48.148;-1.554;2023-03-04T08:54:09;102210.53;;;3.36;86.43
46464;BME280;32161;48.148;-1.554;2023-03-04T08:56:37;102209.13;;;3.69;85.95
46464;BME280;32161;48.148;-1.554;2023-03-04T08:59:04;102205.38;;;3.80;85.55
46464;BME280;32161;48.148;-1.554;2023-03-04T09:01:33;102210.16;;;3.86;85.62
46464;BME280;32161;48.148;-1.554;2023-03-04T09:04:01;102209.88;;;4.07;84.79
46464;BME280;32161;48.148;-1.554;2023-03-04T09:06:28;102217.81;;;4.08;84.51
46464;BME280;32161;48.148;-1.554;2023-03-04T09:08:56;102212.47;;;3.99;84.36
46464;BME280;32161;48.148;-1.554;2023-03-04T09:11:24;102213.75;;;4.04;84.09
46464;BME280;32161;48.148;-1.554;2023-03-04T09:13:51;102209.84;;;4.16;83.41
46464;BME280;32161;48.148;-1.554;2023-03-04T09:16:19;102220.44;;;4.18;83.13
46464;BME280;32161;48.148;-1.554;2023-03-04T09:18:48;102214.50;;;4.14;83.47
46464;BME280;32161;48.148;-1.554;2023-03-04T09:21:15;102205.91;;;4.29;83.22
46464;BME280;32161;48.148;-1.554;2023-03-04T09:23:43;102209.69;;;4.36;83.66
46464;BME280;32161;48.148;-1.554;2023-03-04T09:26:17;102207.97;;;4.53;82.11
46464;BME280;32161;48.148;-1.554;2023-03-04T09:28:48;102203.69;;;4.42;82.55
46464;BME280;32161;48.148;-1.554;2023-03-04T09:31:15;102197.84;;;4.29;83.34
46464;BME280;32161;48.148;-1.554;2023-03-04T09:33:43;102205.44;;;4.33;83.81
46464;BME280;32161;48.148;-1.554;2023-03-04T09:36:14;102200.59;;;4.37;83.49
46464;BME280;32161;48.148;-1.554;2023-03-04T09:38:42;102201.00;;;4.24;83.71
46464;BME280;32161;48.148;-1.554;2023-03-04T09:41:15;102202.16;;;4.39;83.28
46464;BME280;32161;48.148;-1.554;2023-03-04T09:43:44;102198.31;;;4.42;83.89
46464;BME280;32161;48.148;-1.554;2023-03-04T09:46:17;102201.22;;;4.67;83.05
46464;BME280;32161;48.148;-1.554;2023-03-04T09:48:48;102203.50;;;4.79;82.02
46464;BME280;32161;48.148;-1.554;2023-03-04T09:51:35;102209.88;;;4.96;82.69
46464;BME280;32161;48.148;-1.554;2023-03-04T09:54:08;102199.69;;;5.08;81.72
46464;BME280;32161;48.148;-1.554;2023-03-04T09:56:39;102201.63;;;4.98;81.06
46464;BME280;32161;48.148;-1.554;2023-03-04T09:59:16;102204.59;;;5.12;80.58
46464;BME280;32161;48.148;-1.554;2023-03-04T10:01:49;102203.56;;;5.13;80.78
46464;BME280;32161;48.148;-1.554;2023-03-04T10:04:30;102202.44;;;5.50;79.93
46464;BME280;32161;48.148;-1.554;2023-03-04T10:07:02;102206.38;;;5.30;79.54
46464;BME280;32161;48.148;-1.554;2023-03-04T10:09:43;102210.13;;;5.37;80.43
46464;BME280;32161;48.148;-1.554;2023-03-04T10:12:14;102209.19;;;5.46;79.69
46464;BME280;32161;48.148;-1.554;2023-03-04T10:14:45;102210.84;;;5.47;79.16
46464;BME280;32161;48.148;-1.554;2023-03-04T10:17:22;102207.31;;;5.81;77.72
46464;BME280;32161;48.148;-1.554;2023-03-04T10:19:57;102198.50;;;5.71;77.77
46464;BME280;32161;48.148;-1.554;2023-03-04T10:22:34;102211.28;;;5.69;78.59
46464;BME280;32161;48.148;-1.554;2023-03-04T10:25:17;102201.66;;;6.00;77.15
46464;BME280;32161;48.148;-1.554;2023-03-04T10:27:51;102209.25;;;6.05;76.55
46464;BME280;32161;48.148;-1.554;2023-03-04T10:30:38;102204.34;;;5.92;76.10
46464;BME280;32161;48.148;-1.554;2023-03-04T10:33:17;102194.44;;;6.09;75.13
46464;BME280;32161;48.148;-1.554;2023-03-04T10:35:49;102195.47;;;6.24;75.35
46464;BME280;32161;48.148;-1.554;2023-03-04T10:38:21;102193.41;;;6.10;74.70
46464;BME280;32161;48.148;-1.554;2023-03-04T10:40:49;102191.75;;;6.25;76.99
46464;BME280;32161;48.148;-1.554;2023-03-04T10:43:19;102192.66;;;6.58;74.20
46464;BME280;32161;48.148;-1.554;2023-03-04T10:45:48;102193.16;;;6.54;75.36
46464;BME280;32161;48.148;-1.554;2023-03-04T10:48:23;102180.31;;;6.56;78.15
46464;BME280;32161;48.148;-1.554;2023-03-04T10:50:51;102179.47;;;6.72;75.92
46464;BME280;32161;48.148;-1.554;2023-03-04T10:53:30;102187.91;;;6.44;75.32
46464;BME280;32161;48.148;-1.554;2023-03-04T10:55:59;102171.03;;;6.67;77.06
46464;BME280;32161;48.148;-1.554;2023-03-04T10:58:28;102172.13;;;7.21;75.52
46464;BME280;32161;48.148;-1.554;2023-03-04T11:01:02;102176.00;;;7.35;74.18
46464;BME280;32161;48.148;-1.554;2023-03-04T11:03:33;102177.66;;;7.36;75.95
46464;BME280;32161;48.148;-1.554;2023-03-04T11:06:10;102164.81;;;7.38;75.32
46464;BME280;32161;48.148;-1.554;2023-03-04T11:08:41;102159.75;;;7.74;75.03
46464;BME280;32161;48.148;-1.554;2023-03-04T11:11:24;102158.91;;;7.74;75.02
46464;BME280;32161;48.148;-1.554;2023-03-04T11:13:54;102158.38;;;7.78;75.69
46464;BME280;32161;48.148;-1.554;2023-03-04T11:16:26;102159.56;;;8.07;73.19
46464;BME280;32161;48.148;-1.554;2023-03-04T11:18:59;102156.91;;;8.22;72.78
46464;BME280;32161;48.148;-1.554;2023-03-04T11:21:36;102150.84;;;8.20;74.01
46464;BME280;32161;48.148;-1.554;2023-03-04T11:24:12;102153.56;;;8.20;74.73
46464;BME280;32161;48.148;-1.554;2023-03-04T11:26:45;102149.31;;;8.48;71.24
46464;BME280;32161;48.148;-1.554;2023-03-04T11:29:17;102147.38;;;8.57;70.16
46464;BME280;32161;48.148;-1.554;2023-03-04T11:31:50;102153.97;;;8.40;67.80
46464;BME280;32161;48.148;-1.554;2023-03-04T11:34:31;102145.00;;;8.39;66.96
46464;BME280;32161;48.148;-1.554;2023-03-04T11:37:08;102141.41;;;8.16;68.92
46464;BME280;32161;48.148;-1.554;2023-03-04T11:39:41;102140.59;;;8.30;69.53
46464;BME280;32161;48.148;-1.554;2023-03-04T11:42:22;102140.44;;;8.31;66.74
46464;BME280;32161;48.148;-1.554;2023-03-04T11:44:55;102132.13;;;8.33;67.92
46464;BME280;32161;48.148;-1.554;2023-03-04T11:47:52;102131.22;;;8.18;67.81
46464;BME280;32161;48.148;-1.554;2023-03-04T11:50:29;102128.28;;;8.04;69.52
46464;BME280;32161;48.148;-1.554;2023-03-04T11:53:39;102125.88;;;8.10;69.44
46464;BME280;32161;48.148;-1.554;2023-03-04T11:56:31;102120.44;;;8.10;68.73
46464;BME280;32161;48.148;-1.554;2023-03-04T11:59:25;102126.47;;;8.20;66.25
46464;BME280;32161;48.148;-1.554;2023-03-04T12:02:11;102120.16;;;8.04;67.64
46464;BME280;32161;48.148;-1.554;2023-03-04T12:05:03;102111.47;;;8.32;67.30
46464;BME280;32161;48.148;-1.554;2023-03-04T12:08:20;102108.41;;;8.35;67.01
46464;BME280;32161;48.148;-1.554;2023-03-04T12:11:00;102104.03;;;8.34;66.10
46464;BME280;32161;48.148;-1.554;2023-03-04T12:13:53;102105.38;;;8.15;66.46
46464;BME280;32161;48.148;-1.554;2023-03-04T12:16:55;102106.91;;;8.10;67.86
46464;BME280;32161;48.148;-1.554;2023-03-04T12:19:35;102101.56;;;8.01;67.80
46464;BME280;32161;48.148;-1.554;2023-03-04T12:22:20;102097.34;;;7.99;68.79
46464;BME280;32161;48.148;-1.554;2023-03-04T12:25:16;102094.03;;;8.12;69.01
46464;BME280;32161;48.148;-1.554;2023-03-04T12:27:56;102086.75;;;7.89;68.32
46464;BME280;32161;48.148;-1.554;2023-03-04T12:30:40;102087.09;;;7.86;68.06
46464;BME280;32161;48.148;-1.554;2023-03-04T12:33:22;102082.88;;;8.06;67.70
46464;BME280;32161;48.148;-1.554;2023-03-04T12:35:57;102084.13;;;8.04;68.32
46464;BME280;32161;48.148;-1.554;2023-03-04T12:38:40;102087.41;;;8.14;68.89
46464;BME280;32161;48.148;-1.554;2023-03-04T12:41:29;102077.09;;;8.32;67.21
46464;BME280;32161;48.148;-1.554;2023-03-04T12:44:11;102092.31;;;8.42;65.82
46464;BME280;32161;48.148;-1.554;2023-03-04T12:47:07;102082.53;;;8.32;67.95
46464;BME280;32161;48.148;-1.554;2023-03-04T12:49:54;102080.72;;;8.25;67.47
46464;BME280;32161;48.148;-1.554;2023-03-04T12:52:36;102078.84;;;8.48;66.88
46464;BME280;32161;48.148;-1.554;2023-03-04T12:55:10;102065.66;;;8.45;66.60
46464;BME280;32161;48.148;-1.554;2023-03-04T12:57:39;102067.00;;;8.26;67.57
46464;BME280;32161;48.148;-1.554;2023-03-04T13:00:19;102070.72;;;8.25;67.02
46464;BME280;32161;48.148;-1.554;2023-03-04T13:02:55;102060.38;;;8.29;66.23
46464;BME280;32161;48.148;-1.554;2023-03-04T13:05:39;102057.38;;;8.24;68.09
46464;BME280;32161;48.148;-1.554;2023-03-04T13:08:19;102054.09;;;8.51;65.56
46464;BME280;32161;48.148;-1.554;2023-03-04T13:10:51;102063.75;;;8.54;65.44